createdAt,value
2022-09-24T00:00:33.126Z,9.21
2022-09-24T00:02:34.146Z,9.15
2022-09-24T00:04:35.569Z,9.08
2022-09-24T00:06:37.279Z,9.12
2022-09-24T00:08:38.636Z,9.08
2022-09-24T00:10:40.252Z,9.06
2022-09-24T00:12:41.361Z,9
2022-09-24T00:14:43.171Z,8.95
2022-09-24T00:16:44.886Z,8.93
2022-09-24T00:18:46.782Z,8.98
2022-09-24T00:20:48.409Z,9
2022-09-24T00:22:49.522Z,9.05
2022-09-24T00:24:51.229Z,9.03
2022-09-24T00:26:52.552Z,8.97
2022-09-24T00:28:54.415Z,8.91
2022-09-24T00:30:55.772Z,8.99
2022-09-24T00:32:57.235Z,8.95
2022-09-24T00:34:58.826Z,8.95
2022-09-24T00:36:59.811Z,8.96
2022-09-24T00:39:01.596Z,8.93
2022-09-24T00:41:02.583Z,8.9
2022-09-24T00:43:04.396Z,8.95
2022-09-24T00:45:06.187Z,8.95
2022-09-24T00:47:07.878Z,8.94
2022-09-24T00:49:08.845Z,8.92
2022-09-24T00:51:09.925Z,8.93
2022-09-24T00:53:11.167Z,8.96
2022-09-24T00:55:13.124Z,8.97
2022-09-24T00:57:14.943Z,8.98
2022-09-24T00:59:16.341Z,9
2022-09-24T01:01:18.196Z,8.97
2022-09-24T01:05:21.298Z,8.92
2022-09-24T01:07:22.580Z,8.88
2022-09-24T01:09:23.855Z,8.92
2022-09-24T01:11:25.584Z,8.88
2022-09-24T01:13:27.393Z,8.82
2022-09-24T01:15:29.079Z,8.82
2022-09-24T01:17:30.837Z,8.79
2022-09-24T01:19:31.940Z,8.8
2022-09-24T01:21:33.713Z,8.77
2022-09-24T01:23:35.150Z,8.77
2022-09-24T01:25:36.274Z,8.78
2022-09-24T01:27:38.071Z,8.76
2022-09-24T01:29:39.155Z,8.71
2022-09-24T01:31:40.745Z,8.73
2022-09-24T01:33:41.697Z,8.71
2022-09-24T01:35:43.491Z,8.71
2022-09-24T01:37:45.281Z,8.74
2022-09-24T01:39:46.518Z,8.78
2022-09-24T01:41:48.342Z,8.78
2022-09-24T01:43:49.973Z,8.78
2022-09-24T01:45:51.291Z,8.73
2022-09-24T01:47:52.604Z,8.74
2022-09-24T01:49:53.668Z,8.73
2022-09-24T01:51:54.729Z,8.76
2022-09-24T01:53:55.974Z,8.76
2022-09-24T01:55:57.565Z,8.78
2022-09-24T01:57:58.782Z,8.68
2022-09-24T02:00:00.578Z,8.67
2022-09-24T02:02:02.539Z,8.66
2022-09-24T02:04:03.587Z,8.66
2022-09-24T02:06:04.907Z,8.64
2022-09-24T02:08:06.286Z,8.63
2022-09-24T02:10:07.970Z,8.64
2022-09-24T02:12:09.234Z,8.68
2022-09-24T02:14:11.000Z,8.8
2022-09-24T02:16:12.916Z,8.8
2022-09-24T02:18:13.932Z,8.79
2022-09-24T02:20:15.506Z,8.76
2022-09-24T02:22:16.829Z,8.74
2022-09-24T02:24:17.868Z,8.7
2022-09-24T02:26:18.966Z,8.68
2022-09-24T02:28:20.845Z,8.64
2022-09-24T02:30:22.086Z,8.63
2022-09-24T02:32:23.102Z,8.66
2022-09-24T02:34:24.141Z,8.66
2022-09-24T02:36:25.272Z,8.65
2022-09-24T02:38:26.503Z,8.63
2022-09-24T02:41:12.196Z,8.65
2022-09-24T02:43:13.499Z,8.7
2022-09-24T02:45:15.148Z,8.64
2022-09-24T02:47:16.988Z,8.65
2022-09-24T02:49:18.932Z,8.65
2022-09-24T02:51:20.737Z,8.64
2022-09-24T02:53:22.279Z,8.66
2022-09-24T02:55:24.209Z,8.68
2022-09-24T02:57:25.805Z,8.68
2022-09-24T02:59:27.769Z,8.71
2022-09-24T03:01:29.127Z,8.71
2022-09-24T03:03:30.710Z,8.69
2022-09-24T03:05:32.638Z,8.64
2022-09-24T03:07:33.759Z,8.61
2022-09-24T03:09:35.262Z,8.64
2022-09-24T03:11:37.055Z,8.69
2022-09-24T03:13:38.342Z,8.67
2022-09-24T03:15:40.325Z,8.68
2022-09-24T03:17:41.578Z,8.63
2022-09-24T03:19:42.712Z,8.59
2022-09-24T03:21:44.160Z,8.62
2022-09-24T03:23:45.406Z,8.61
2022-09-24T03:25:46.983Z,8.62
2022-09-24T03:27:48.458Z,8.62
2022-09-24T03:29:49.740Z,8.64
2022-09-24T03:31:51.672Z,8.63
2022-09-24T03:33:52.586Z,8.6
2022-09-24T03:35:54.134Z,8.62
2022-09-24T03:37:55.264Z,8.72
2022-09-24T03:39:57.129Z,8.69
2022-09-24T03:41:58.513Z,8.68
2022-09-24T03:44:00.290Z,8.71
2022-09-24T03:46:01.809Z,8.69
2022-09-24T03:48:02.930Z,8.7
2022-09-24T03:50:04.777Z,8.65
2022-09-24T03:52:06.665Z,8.66
2022-09-24T03:54:08.163Z,8.68
2022-09-24T03:56:09.781Z,8.66
2022-09-24T03:58:11.454Z,8.68
2022-09-24T04:00:13.312Z,8.63
2022-09-24T04:02:14.974Z,8.59
2022-09-24T04:06:19.673Z,8.56
2022-09-24T04:08:18.731Z,8.55
2022-09-24T04:10:20.182Z,8.53
2022-09-24T04:12:21.900Z,8.53
2022-09-24T04:14:22.926Z,8.48
2022-09-24T04:16:24.290Z,8.55
2022-09-24T04:18:25.709Z,8.52
2022-09-24T04:20:27.551Z,8.44
2022-09-24T04:22:29.127Z,8.38
2022-09-24T04:24:30.795Z,8.32
2022-09-24T04:26:31.828Z,8.37
2022-09-24T04:28:33.249Z,8.39
2022-09-24T04:30:34.701Z,8.32
2022-09-24T04:32:35.860Z,8.29
2022-09-24T04:34:37.836Z,8.3
2022-09-24T04:36:39.403Z,8.32
2022-09-24T04:38:40.975Z,8.26
2022-09-24T04:40:41.973Z,8.13
2022-09-24T04:42:43.397Z,8.06
2022-09-24T04:44:45.074Z,8.04
2022-09-24T04:46:46.906Z,7.91
2022-09-24T04:48:48.051Z,7.84
2022-09-24T04:50:49.910Z,7.78
2022-09-24T04:52:51.554Z,7.73
2022-09-24T04:54:53.170Z,7.71
2022-09-24T04:56:55.028Z,7.76
2022-09-24T04:58:56.316Z,7.76
2022-09-24T05:00:57.813Z,7.77
2022-09-24T05:02:59.530Z,7.99
2022-09-24T05:05:00.997Z,8.05
2022-09-24T05:07:02.802Z,8.05
2022-09-24T05:09:05.470Z,8.09
2022-09-24T05:11:05.996Z,8.21
2022-09-24T05:13:06.996Z,8.26
2022-09-24T05:15:08.083Z,8.21
2022-09-24T05:17:09.288Z,8.16
2022-09-24T05:19:10.311Z,8.12
2022-09-24T05:21:12.086Z,8.2
2022-09-24T05:23:13.699Z,8.15
2022-09-24T05:25:14.943Z,8.09
2022-09-24T05:27:16.239Z,8.07
2022-09-24T05:29:18.068Z,8.11
2022-09-24T05:31:19.223Z,8.2
2022-09-24T05:33:20.609Z,8.06
2022-09-24T05:35:22.221Z,8.01
2022-09-24T05:37:23.392Z,7.99
2022-09-24T05:39:24.372Z,7.93
2022-09-24T05:41:26.285Z,7.9
2022-09-24T05:43:27.763Z,7.89
2022-09-24T05:45:29.016Z,7.84
2022-09-24T05:47:30.678Z,7.8
2022-09-24T05:49:32.525Z,7.77
2022-09-24T05:51:34.418Z,7.92
2022-09-24T05:53:35.465Z,7.97
2022-09-24T05:55:37.167Z,8.06
2022-09-24T05:57:38.163Z,8.18
2022-09-24T05:59:39.895Z,8.36
2022-09-24T06:01:41.003Z,8.74
2022-09-24T06:03:42.597Z,8.81
2022-09-24T06:05:43.595Z,8.67
2022-09-24T06:07:44.642Z,8.67
2022-09-24T06:09:46.157Z,8.88
2022-09-24T06:11:47.818Z,9.38
2022-09-24T06:13:49.742Z,9.56
2022-09-24T06:15:51.448Z,9.84
2022-09-24T06:17:53.048Z,10.18
2022-09-24T06:19:54.802Z,10.3
2022-09-24T06:21:56.267Z,10.37
2022-09-24T06:23:57.500Z,10.28
2022-09-24T06:25:58.532Z,10.08
2022-09-24T06:27:59.881Z,9.67
2022-09-24T06:30:01.763Z,9.4
2022-09-24T06:32:03.655Z,9.37
2022-09-24T06:34:05.256Z,9.4
2022-09-24T06:36:07.056Z,9.39
2022-09-24T06:38:08.468Z,9.44
2022-09-24T06:40:09.757Z,9.38
2022-09-24T06:42:11.180Z,9.6
2022-09-24T06:44:12.346Z,10.06
2022-09-24T06:46:13.933Z,10.72
2022-09-24T06:48:15.110Z,10.87
2022-09-24T06:50:16.875Z,11.41
2022-09-24T06:52:18.088Z,11.88
2022-09-24T06:54:19.873Z,12.09
2022-09-24T06:56:20.875Z,12.39
2022-09-24T06:58:22.064Z,12.46
2022-09-24T07:00:23.207Z,12.37
2022-09-24T07:02:24.501Z,11.76
2022-09-24T07:04:25.433Z,11.65
2022-09-24T07:06:27.171Z,11.46
2022-09-24T07:08:29.005Z,11.38
2022-09-24T07:12:32.223Z,11.15
2022-09-24T07:14:33.542Z,11.16
2022-09-24T07:16:35.127Z,11.01
2022-09-24T07:18:36.405Z,10.9
2022-09-24T07:20:37.571Z,10.56
2022-09-24T07:22:39.272Z,10.51
2022-09-24T07:24:41.127Z,10.51
2022-09-24T07:26:42.809Z,10.64
2022-09-24T07:28:44.429Z,10.83
2022-09-24T07:30:45.455Z,11.15
2022-09-24T07:32:47.098Z,11.72
2022-09-24T07:34:48.444Z,12.06
2022-09-24T07:36:50.209Z,11.8
2022-09-24T07:38:51.753Z,11.66
2022-09-24T07:40:53.425Z,11.78
2022-09-24T07:42:54.662Z,12.09
2022-09-24T07:44:56.087Z,12.53
2022-09-24T07:46:57.621Z,12.63
2022-09-24T07:48:58.422Z,12.64
2022-09-24T07:51:00.100Z,12.65
2022-09-24T07:53:01.605Z,12.44
2022-09-24T07:55:03.030Z,12.55
2022-09-24T07:57:04.423Z,12.68
2022-09-24T07:59:05.650Z,12.96
2022-09-24T08:01:07.144Z,13.5
2022-09-24T08:03:08.601Z,13.91
2022-09-24T08:05:09.606Z,14.14
2022-09-24T08:07:10.714Z,13.9
2022-09-24T08:09:12.103Z,14.11
2022-09-24T08:11:13.274Z,14.06
2022-09-24T08:13:14.857Z,14.23
2022-09-24T08:15:16.948Z,14.8
2022-09-24T08:17:18.514Z,15.06
2022-09-24T08:19:20.276Z,15.13
2022-09-24T08:21:21.529Z,15.35
2022-09-24T08:23:22.533Z,15.35
2022-09-24T08:25:24.281Z,15.45
2022-09-24T08:27:25.704Z,15.09
2022-09-24T08:29:27.081Z,15.03
2022-09-24T08:31:29.848Z,14.93
2022-09-24T08:33:31.495Z,14.79
2022-09-24T08:35:32.460Z,14.69
2022-09-24T08:37:34.253Z,14.57
2022-09-24T08:39:35.959Z,14.89
2022-09-24T08:41:37.265Z,15.19
2022-09-24T08:43:38.959Z,15.33
2022-09-24T08:45:40.278Z,15.58
2022-09-24T08:49:42.160Z,15.56
2022-09-24T08:51:43.907Z,15.8
2022-09-24T08:53:45.889Z,16.05
2022-09-24T08:55:46.990Z,15.97
2022-09-24T08:57:48.654Z,16.14
2022-09-24T08:59:50.292Z,16.29
2022-09-24T09:01:52.032Z,16.48
2022-09-24T09:03:53.316Z,16.5
2022-09-24T09:05:54.659Z,16.05
2022-09-24T09:07:55.829Z,16.1
2022-09-24T09:09:56.778Z,16.12
2022-09-24T09:11:58.209Z,15.73
2022-09-24T09:13:59.916Z,15.84
2022-09-24T09:16:01.239Z,15.89
2022-09-24T09:18:02.531Z,15.77
2022-09-24T09:20:03.635Z,15.85
2022-09-24T09:22:04.910Z,15.79
2022-09-24T09:24:06.049Z,15.77
2022-09-24T09:25:06.945Z,15.77
2022-09-24T09:27:08.027Z,15.86
2022-09-24T09:29:09.157Z,15.88
2022-09-24T09:31:10.875Z,16.04
2022-09-24T09:33:12.052Z,16.2
2022-09-24T09:35:13.666Z,16.26
2022-09-24T09:37:15.419Z,16.29
2022-09-24T09:39:16.490Z,16.3
2022-09-24T09:41:17.874Z,16.32
2022-09-24T09:43:19.022Z,16.52
2022-09-24T09:45:23.046Z,16.35
2022-09-24T09:47:21.546Z,16.3
2022-09-24T09:49:22.680Z,16.64
2022-09-24T09:51:23.812Z,16.56
2022-09-24T09:53:25.589Z,16.6
2022-09-24T09:55:26.677Z,16.3
2022-09-24T09:57:28.183Z,16.41
2022-09-24T09:59:29.777Z,16.56
2022-09-24T10:01:30.290Z,16.58
2022-09-24T10:03:31.935Z,16.82
2022-09-24T10:05:33.412Z,16.87
2022-09-24T10:07:35.087Z,16.78
2022-09-24T10:09:36.624Z,16.82
2022-09-24T10:11:38.003Z,16.89
2022-09-24T10:13:39.689Z,16.98
2022-09-24T10:15:45.297Z,16.98
2022-09-24T10:17:43.090Z,16.68
2022-09-24T10:19:43.906Z,16.77
2022-09-24T10:21:44.860Z,16.57
2022-09-24T10:23:45.919Z,16.54
2022-09-24T10:25:46.964Z,16.34
2022-09-24T10:27:48.200Z,16.3
2022-09-24T10:29:49.353Z,16.32
2022-09-24T10:31:51.180Z,16.47
2022-09-24T10:33:52.376Z,16.55
2022-09-24T10:35:53.387Z,16.35
2022-09-24T10:37:54.652Z,16.46
2022-09-24T10:39:56.018Z,16.74
2022-09-24T10:41:56.866Z,16.96
2022-09-24T10:43:57.780Z,16.85
2022-09-24T10:45:59.098Z,16.85
2022-09-24T10:48:00.037Z,16.86
2022-09-24T10:50:01.150Z,17.16
2022-09-24T10:52:02.932Z,17.31
2022-09-24T10:54:04.571Z,17.37
2022-09-24T10:56:05.723Z,17.4
2022-09-24T10:58:07.183Z,17.6
2022-09-24T11:00:08.637Z,17.3
2022-09-24T11:02:10.533Z,17.06
2022-09-24T11:04:12.158Z,16.91
2022-09-24T11:06:12.969Z,16.78
2022-09-24T11:08:14.085Z,16.92
2022-09-24T11:10:15.732Z,17.26
2022-09-24T11:12:17.505Z,17.35
2022-09-24T11:14:19.057Z,17.38
2022-09-24T11:16:20.187Z,17.64
2022-09-24T11:18:21.401Z,17.58
2022-09-24T11:20:23.115Z,17.73
2022-09-24T11:22:24.382Z,17.78
2022-09-24T11:24:25.669Z,17.91
2022-09-24T11:26:26.685Z,18.25
2022-09-24T11:28:28.012Z,18.79
2022-09-24T11:30:28.925Z,18.75
2022-09-24T11:32:29.753Z,18.66
2022-09-24T11:34:30.732Z,18.09
2022-09-24T11:36:32.493Z,18.68
2022-09-24T11:38:34.216Z,18.4
2022-09-24T11:40:35.227Z,19.12
2022-09-24T11:42:36.508Z,19.26
2022-09-24T11:44:37.379Z,19.37
2022-09-24T11:46:38.386Z,19.08
2022-09-24T11:48:39.508Z,18.97
2022-09-24T11:50:45.043Z,19
2022-09-24T11:52:42.456Z,18.44
2022-09-24T11:54:43.779Z,18.74
2022-09-24T11:56:45.384Z,19.18
2022-09-24T11:58:46.943Z,19.39
2022-09-24T12:00:48.463Z,19.15
2022-09-24T12:02:49.799Z,18.43
2022-09-24T12:04:51.457Z,18.73
2022-09-24T12:06:52.763Z,18.77
2022-09-24T12:08:53.542Z,18.52
2022-09-24T12:10:55.932Z,18.2
2022-09-24T12:12:57.709Z,18.39
2022-09-24T12:14:58.787Z,18.22
2022-09-24T12:16:59.993Z,18.28
2022-09-24T12:19:01.378Z,18.46
2022-09-24T12:21:02.780Z,18.51
2022-09-24T12:23:04.073Z,18.27
2022-09-24T12:25:05.858Z,17.97
2022-09-24T12:27:07.240Z,18.15
2022-09-24T12:29:08.902Z,18.22
2022-09-24T12:31:12.543Z,18.18
2022-09-24T12:33:12.608Z,18.01
2022-09-24T12:35:14.147Z,18.3
2022-09-24T12:37:15.923Z,18.82
2022-09-24T12:39:17.254Z,19.34
2022-09-24T12:41:18.944Z,19.31
2022-09-24T12:43:20.611Z,19.17
2022-09-24T12:45:21.568Z,18.82
2022-09-24T12:47:22.837Z,18.63
2022-09-24T12:49:24.316Z,18.54
2022-09-24T12:51:25.364Z,18.78
2022-09-24T12:53:27.185Z,18.94
2022-09-24T12:55:28.646Z,18.87
2022-09-24T12:57:29.730Z,18.77
2022-09-24T12:59:31.319Z,18.6
2022-09-24T13:01:32.420Z,18.4
2022-09-24T13:03:33.268Z,18.6
2022-09-24T13:05:34.149Z,18.58
2022-09-24T13:09:37.750Z,18.57
2022-09-24T13:11:38.737Z,18.24
2022-09-24T13:13:39.755Z,18.37
2022-09-24T13:15:41.550Z,18.16
2022-09-24T13:17:42.464Z,18.06
2022-09-24T13:19:44.126Z,18.08
2022-09-24T13:21:45.466Z,18.09
2022-09-24T13:23:46.350Z,17.83
2022-09-24T13:25:47.347Z,17.76
2022-09-24T13:27:48.639Z,17.57
2022-09-24T13:29:49.903Z,17.59
2022-09-24T13:31:51.653Z,17.73
2022-09-24T13:33:53.008Z,17.84
2022-09-24T13:35:54.881Z,17.94
2022-09-24T13:37:56.342Z,17.86
2022-09-24T13:39:57.265Z,17.99
2022-09-24T13:41:58.398Z,17.96
2022-09-24T13:43:59.525Z,17.84
2022-09-24T13:46:00.859Z,17.77
2022-09-24T13:48:02.591Z,17.84
2022-09-24T13:50:03.476Z,17.78
2022-09-24T13:52:04.995Z,17.77
2022-09-24T13:54:06.437Z,17.53
2022-09-24T13:56:08.165Z,17.54
2022-09-24T13:58:09.751Z,17.46
2022-09-24T14:00:10.793Z,17.54
2022-09-24T14:02:12.157Z,17.53
2022-09-24T14:04:13.446Z,17.54
2022-09-24T14:06:14.425Z,17.73
2022-09-24T14:08:16.049Z,17.8
2022-09-24T14:10:17.030Z,17.81
2022-09-24T14:12:18.048Z,17.76
2022-09-24T14:14:18.940Z,17.74
2022-09-24T14:16:20.507Z,17.6
2022-09-24T14:18:21.606Z,17.55
2022-09-24T14:20:22.916Z,17.56
2022-09-24T14:22:24.301Z,17.6
2022-09-24T14:24:25.325Z,17.46
2022-09-24T14:26:26.289Z,17.35
2022-09-24T14:28:27.871Z,17.32
2022-09-24T14:30:29.107Z,17.47
2022-09-24T14:32:30.394Z,17.42
2022-09-24T14:34:31.239Z,17.33
2022-09-24T14:36:32.860Z,17.25
2022-09-24T14:38:34.178Z,17.14
2022-09-24T14:40:35.550Z,17.14
2022-09-24T14:42:36.982Z,16.82
2022-09-24T14:44:38.725Z,16.88
2022-09-24T14:46:39.944Z,16.97
2022-09-24T14:48:41.553Z,17
2022-09-24T14:50:43.045Z,16.8
2022-09-24T14:52:44.713Z,16.89
2022-09-24T14:54:46.034Z,16.82
2022-09-24T14:56:47.825Z,16.79
2022-09-24T14:58:49.640Z,16.77
2022-09-24T15:00:50.787Z,16.72
2022-09-24T15:02:52.424Z,16.73
2022-09-24T15:04:53.753Z,16.81
2022-09-24T15:06:55.446Z,16.75
2022-09-24T15:08:56.661Z,16.77
2022-09-24T15:10:57.797Z,16.77
2022-09-24T15:12:59.629Z,16.76
2022-09-24T15:15:01.445Z,16.72
2022-09-24T15:17:02.395Z,16.69
2022-09-24T15:19:03.768Z,16.65
2022-09-24T15:21:05.516Z,16.61
2022-09-24T15:23:06.986Z,16.58
2022-09-24T15:25:08.221Z,16.52
2022-09-24T15:27:09.278Z,16.52
2022-09-24T15:29:10.705Z,16.51
2022-09-24T15:33:12.568Z,16.42
2022-09-24T15:35:13.599Z,16.41
2022-09-24T15:37:14.492Z,16.39
2022-09-24T15:39:16.103Z,16.39
2022-09-24T15:41:17.174Z,16.33
2022-09-24T15:43:18.438Z,16.32
2022-09-24T15:45:20.093Z,16.34
2022-09-24T15:47:21.682Z,16.34
2022-09-24T15:49:22.894Z,16.33
2022-09-24T15:51:24.143Z,16.27
2022-09-24T15:53:25.834Z,16.19
2022-09-24T15:55:26.756Z,16.09
2022-09-24T15:57:28.305Z,16
2022-09-24T16:01:31.059Z,15.84
2022-09-24T16:03:32.012Z,15.83
2022-09-24T16:05:33.619Z,15.78
2022-09-24T16:07:35.346Z,15.76
2022-09-24T16:09:36.393Z,15.76
2022-09-24T16:10:20.162Z,15.76
2022-09-24T16:12:21.113Z,15.77
2022-09-24T16:14:22.954Z,15.74
2022-09-24T16:16:24.429Z,15.74
2022-09-24T16:18:25.403Z,15.74
2022-09-24T16:20:26.938Z,15.73
2022-09-24T16:22:28.740Z,15.76
2022-09-24T16:24:30.560Z,15.64
2022-09-24T16:26:31.982Z,15.64
2022-09-24T16:28:33.526Z,15.65
2022-09-24T16:30:38.405Z,15.69
2022-09-24T16:32:36.558Z,15.78
2022-09-24T16:34:37.693Z,15.78
2022-09-24T16:36:38.639Z,15.78
2022-09-24T16:38:40.072Z,15.7
2022-09-24T16:40:41.556Z,15.69
2022-09-24T16:42:43.198Z,15.6
2022-09-24T16:44:44.529Z,15.58
2022-09-24T16:46:45.450Z,15.45
2022-09-24T16:48:46.454Z,15.44
2022-09-24T16:50:47.420Z,15.41
2022-09-24T16:52:49.157Z,15.4
2022-09-24T16:54:50.990Z,15.37
2022-09-24T16:56:52.211Z,15.27
2022-09-24T16:58:53.655Z,15.21
2022-09-24T17:00:55.142Z,15.15
2022-09-24T17:02:56.269Z,15.08
2022-09-24T17:04:59.759Z,15.05
2022-09-24T17:06:58.525Z,15
2022-09-24T17:09:00.404Z,14.95
2022-09-24T17:11:01.307Z,14.88
2022-09-24T17:13:02.729Z,14.82
2022-09-24T17:15:04.622Z,14.81
2022-09-24T17:17:06.015Z,14.76
2022-09-24T17:19:07.178Z,14.7
2022-09-24T17:21:08.135Z,14.6
2022-09-24T17:23:09.484Z,14.59
2022-09-24T17:25:10.529Z,14.46
2022-09-24T17:27:12.251Z,14.35
2022-09-24T17:29:13.220Z,14.28
2022-09-24T17:31:15.018Z,14.26
2022-09-24T17:33:41.663Z,14.28
2022-09-24T17:35:17.959Z,14.25
2022-09-24T17:37:19.216Z,14.28
2022-09-24T17:39:21.064Z,14.3
2022-09-24T17:41:22.836Z,14.24
2022-09-24T17:43:24.264Z,14.28
2022-09-24T17:45:26.177Z,14.25
2022-09-24T17:47:27.349Z,14.23
2022-09-24T17:49:28.785Z,14.26
2022-09-24T17:51:30.609Z,14.24
2022-09-24T17:53:32.329Z,14.19
2022-09-24T17:55:33.450Z,14.12
2022-09-24T17:57:35.223Z,14.11
2022-09-24T17:59:36.817Z,14.02
2022-09-24T18:01:38.457Z,14
2022-09-24T18:03:39.717Z,13.9
2022-09-24T18:05:40.873Z,13.88
2022-09-24T18:07:42.351Z,13.87
2022-09-24T18:09:44.057Z,13.8
2022-09-24T18:11:45.207Z,13.84
2022-09-24T18:13:46.134Z,13.78
2022-09-24T18:15:47.318Z,13.77
2022-09-24T18:17:47.951Z,13.74
2022-09-24T18:19:49.135Z,13.7
2022-09-24T18:21:51.025Z,13.66
2022-09-24T18:23:51.954Z,13.53
2022-09-24T18:25:53.152Z,13.46
2022-09-24T18:27:54.711Z,13.39
2022-09-24T18:29:56.584Z,13.32
2022-09-24T18:31:57.883Z,13.31
2022-09-24T18:33:59.615Z,13.32
2022-09-24T18:36:00.964Z,13.29
2022-09-24T18:38:02.530Z,13.32
2022-09-24T18:40:04.317Z,13.34
2022-09-24T18:42:05.761Z,13.38
2022-09-24T18:44:07.184Z,13.42
2022-09-24T18:46:08.420Z,13.44
2022-09-24T18:48:09.737Z,13.42
2022-09-24T18:50:11.191Z,13.38
2022-09-24T18:52:12.972Z,13.34
2022-09-24T18:54:14.392Z,13.36
2022-09-24T18:56:16.205Z,13.35
2022-09-24T18:58:17.604Z,13.31
2022-09-24T19:00:18.423Z,13.21
2022-09-24T19:02:20.326Z,13.21
2022-09-24T19:04:22.121Z,13.16
2022-09-24T19:06:23.256Z,13.15
2022-09-24T19:08:24.518Z,13.11
2022-09-24T19:10:25.947Z,13.06
2022-09-24T19:12:27.242Z,13.12
2022-09-24T19:14:28.358Z,13.1
2022-09-24T19:16:30.104Z,13.23
2022-09-24T19:18:31.230Z,13.27
2022-09-24T19:20:32.125Z,13.29
2022-09-24T19:22:33.676Z,13.32
2022-09-24T19:24:35.436Z,13.31
2022-09-24T19:26:37.211Z,13.18
2022-09-24T19:28:38.906Z,13.16
2022-09-24T19:30:40.170Z,13.1
2022-09-24T19:32:41.585Z,13.06
2022-09-24T19:34:43.365Z,13.05
2022-09-24T19:36:45.537Z,13.05
2022-09-24T19:38:46.829Z,13
2022-09-24T19:40:48.543Z,13
2022-09-24T19:42:49.536Z,12.97
2022-09-24T19:44:50.694Z,12.95
2022-09-24T19:46:51.865Z,13.03
2022-09-24T19:48:53.092Z,12.98
2022-09-24T19:50:54.709Z,12.89
2022-09-24T19:52:55.920Z,12.86
2022-09-24T19:54:57.207Z,12.84
2022-09-24T19:56:58.859Z,12.91
2022-09-24T19:58:59.875Z,12.96
2022-09-24T20:01:01.396Z,12.99
2022-09-24T20:03:02.801Z,12.91
2022-09-24T20:05:04.501Z,12.82
2022-09-24T20:07:06.197Z,12.9
2022-09-24T20:09:08.011Z,12.88
2022-09-24T20:11:09.711Z,12.97
2022-09-24T20:15:12.578Z,13.01
2022-09-24T20:17:13.745Z,13.02
2022-09-24T20:19:15.502Z,13
2022-09-24T20:21:17.325Z,13.04
2022-09-24T20:23:18.472Z,13.09
2022-09-24T20:25:19.962Z,13.05
2022-09-24T20:27:21.717Z,13.06
2022-09-24T20:29:22.891Z,13.06
2022-09-24T20:31:24.152Z,13.02
2022-09-24T20:33:25.012Z,12.99
2022-09-24T20:35:26.883Z,12.9
2022-09-24T20:37:28.364Z,12.85
2022-09-24T20:39:29.508Z,12.86
2022-09-24T20:41:30.858Z,12.81
2022-09-24T20:43:32.338Z,12.85
2022-09-24T20:45:33.983Z,12.92
2022-09-24T20:47:35.319Z,12.85
2022-09-24T20:49:36.295Z,12.82
2022-09-24T20:51:37.840Z,12.83
2022-09-24T20:53:39.018Z,12.87
2022-09-24T20:55:40.509Z,12.86
2022-09-24T20:57:41.794Z,12.88
2022-09-24T20:59:42.869Z,12.86
2022-09-24T21:01:44.063Z,12.84
2022-09-24T21:03:46.184Z,12.82
2022-09-24T21:05:46.445Z,12.8
2022-09-24T21:07:47.463Z,12.75
2022-09-24T21:09:48.782Z,12.67
2022-09-24T21:11:50.695Z,12.7
2022-09-24T21:13:52.394Z,12.69
2022-09-24T21:15:54.305Z,12.66
2022-09-24T21:18:18.691Z,12.64
2022-09-24T21:19:57.146Z,12.6
2022-09-24T21:21:58.026Z,12.62
2022-09-24T21:23:59.765Z,12.62
2022-09-24T21:26:01.044Z,12.57
2022-09-24T21:28:02.900Z,12.55
2022-09-24T21:30:04.561Z,12.53
2022-09-24T21:32:05.789Z,12.54
2022-09-24T21:34:07.320Z,12.54
2022-09-24T21:36:09.159Z,12.56
2022-09-24T21:38:10.935Z,12.53
2022-09-24T21:40:12.723Z,12.47
2022-09-24T21:42:13.797Z,12.5
2022-09-24T21:44:15.258Z,12.46
2022-09-24T21:46:17.031Z,12.41
2022-09-24T21:48:18.347Z,12.46
2022-09-24T21:50:20.054Z,12.5
2022-09-24T21:52:21.386Z,12.5
2022-09-24T21:54:23.134Z,12.46
2022-09-24T21:56:24.265Z,12.48
2022-09-24T21:58:25.231Z,12.47
2022-09-24T22:00:26.880Z,12.49
2022-09-24T22:02:28.637Z,12.45
2022-09-24T22:04:30.152Z,12.34
2022-09-24T22:06:31.121Z,12.33
2022-09-24T22:08:32.804Z,12.33
2022-09-24T22:10:33.836Z,12.37
2022-09-24T22:12:35.023Z,12.32
2022-09-24T22:14:36.853Z,12.39
2022-09-24T22:16:38.136Z,12.38
2022-09-24T22:18:39.023Z,12.38
2022-09-24T22:20:40.298Z,12.32
2022-09-24T22:22:42.147Z,12.38
2022-09-24T22:24:43.544Z,12.36
2022-09-24T22:26:45.216Z,12.31
2022-09-24T22:28:47.124Z,12.31
2022-09-24T22:30:48.158Z,12.32
2022-09-24T22:32:49.664Z,12.29
2022-09-24T22:34:51.559Z,12.31
2022-09-24T22:36:52.995Z,12.3
2022-09-24T22:38:54.234Z,12.25
2022-09-24T22:40:55.964Z,12.24
2022-09-24T22:42:57.063Z,12.23
2022-09-24T22:44:58.054Z,12.22
2022-09-24T22:46:59.310Z,12.25
2022-09-24T22:49:00.585Z,12.24
2022-09-24T22:51:01.806Z,12.24
2022-09-24T22:53:02.773Z,12.19
2022-09-24T22:55:04.358Z,12.23
2022-09-24T22:55:51.801Z,12.25
2022-09-24T22:57:49.692Z,12.19
2022-09-24T22:59:51.381Z,12.19
2022-09-24T23:01:53.344Z,12.08
2022-09-24T23:03:54.886Z,12.05
2022-09-24T23:05:56.251Z,12.05
2022-09-24T23:07:57.335Z,12.06
2022-09-24T23:09:58.750Z,12.11
2022-09-24T23:12:00.399Z,12.08
2022-09-24T23:14:01.471Z,12.07
2022-09-24T23:16:02.509Z,12.06
2022-09-24T23:18:03.497Z,12.05
2022-09-24T23:20:04.942Z,12.03
2022-09-24T23:22:06.784Z,12.02
2022-09-24T23:24:08.502Z,12
2022-09-24T23:26:13.107Z,11.96
2022-09-24T23:28:10.904Z,11.96
2022-09-24T23:30:12.265Z,11.95
2022-09-24T23:32:14.017Z,12
2022-09-24T23:34:15.184Z,12.06
2022-09-24T23:36:16.754Z,12.08
2022-09-24T23:38:18.548Z,12.08
2022-09-24T23:40:19.614Z,12.05
2022-09-24T23:42:20.532Z,12.07
2022-09-24T23:44:21.769Z,12.06
2022-09-24T23:46:23.237Z,12.05
2022-09-24T23:48:24.313Z,12.05
2022-09-24T23:50:25.586Z,11.95
2022-09-24T23:52:27.313Z,11.91
2022-09-24T23:54:29.106Z,11.9
2022-09-24T23:56:30.252Z,11.93
2022-09-24T23:58:31.913Z,11.89
